sensor_id;sensor_type;location;lat;lon;timestamp;pressure;altitude;pressure_sealevel;temperature;humidity
27840;BME280;15207;42.182;24.308;2023-05-23T00:01:30;98972.25;;;14.45;100.00
27840;BME280;15207;42.182;24.308;2023-05-23T00:03:58;98977.56;;;14.37;99.86
27840;BME280;15207;42.182;24.308;2023-05-23T00:06:24;98979.63;;;14.25;99.51
27840;BME280;15207;42.182;24.308;2023-05-23T00:08:51;98979.97;;;14.22;99.95
27840;BME280;15207;42.182;24.308;2023-05-23T00:11:17;98978.47;;;14.09;100.00
27840;BME280;15207;42.182;24.308;2023-05-23T00:13:44;98971.88;;;14.04;100.00
27840;BME280;15207;42.182;24.308;2023-05-23T00:16:10;98971.63;;;13.97;100.00
27840;BME280;15207;42.182;24.308;2023-05-23T00:18:37;98971.94;;;13.94;100.00
27840;BME280;15207;42.182;24.308;2023-05-23T00:21:07;98970.13;;;13.84;100.00
27840;BME280;15207;42.182;24.308;2023-05-23T00:23:34;98966.75;;;13.82;100.00
27840;BME280;15207;42.182;24.308;2023-05-23T00:25:59;98960.50;;;13.82;100.00
27840;BME280;15207;42.182;24.308;2023-05-23T00:28:25;98965.50;;;13.77;100.00
27840;BME280;15207;42.182;24.308;2023-05-23T00:30:51;98965.66;;;13.75;100.00
27840;BME280;15207;42.182;24.308;2023-05-23T00:33:17;98959.72;;;13.71;100.00
27840;BME280;15207;42.182;24.308;2023-05-23T00:35:46;98967.59;;;13.55;100.00
27840;BME280;15207;42.182;24.308;2023-05-23T00:38:11;98977.56;;;13.34;100.00
27840;BME280;15207;42.182;24.308;2023-05-23T00:40:38;98973.31;;;13.32;100.00
27840;BME280;15207;42.182;24.308;2023-05-23T00:43:04;98977.22;;;13.09;100.00
27840;BME280;15207;42.182;24.308;2023-05-23T00:45:30;98976.41;;;12.99;100.00
27840;BME280;15207;42.182;24.308;2023-05-23T00:47:56;98974.75;;;12.88;100.00
27840;BME280;15207;42.182;24.308;2023-05-23T00:50:23;98972.47;;;12.93;100.00
27840;BME280;15207;42.182;24.308;2023-05-23T00:52:50;98973.84;;;13.07;100.00
27840;BME280;15207;42.182;24.308;2023-05-23T00:55:15;98972.41;;;13.13;100.00
27840;BME280;15207;42.182;24.308;2023-05-23T00:57:41;98972.09;;;13.16;100.00
27840;BME280;15207;42.182;24.308;2023-05-23T01:00:10;98968.28;;;13.19;100.00
27840;BME280;15207;42.182;24.308;2023-05-23T01:02:42;98967.59;;;13.17;100.00
27840;BME280;15207;42.182;24.308;2023-05-23T01:05:14;98968.41;;;13.17;100.00
27840;BME280;15207;42.182;24.308;2023-05-23T01:07:45;98969.13;;;13.19;100.00
27840;BME280;15207;42.182;24.308;2023-05-23T01:10:12;98965.59;;;13.19;100.00
27840;BME280;15207;42.182;24.308;2023-05-23T01:15:28;98968.66;;;13.34;100.00
27840;BME280;15207;42.182;24.308;2023-05-23T01:18:02;98954.75;;;13.39;100.00
27840;BME280;15207;42.182;24.308;2023-05-23T01:20:58;98958.16;;;13.41;100.00
27840;BME280;15207;42.182;24.308;2023-05-23T01:29:39;98949.38;;;13.39;100.00
27840;BME280;15207;42.182;24.308;2023-05-23T01:32:09;98947.84;;;13.36;100.00
27840;BME280;15207;42.182;24.308;2023-05-23T01:34:37;98940.09;;;13.33;100.00
27840;BME280;15207;42.182;24.308;2023-05-23T01:37:08;98948.97;;;13.33;100.00
27840;BME280;15207;42.182;24.308;2023-05-23T01:39:35;98950.31;;;13.19;99.09
27840;BME280;15207;42.182;24.308;2023-05-23T01:42:01;98950.91;;;13.13;99.07
27840;BME280;15207;42.182;24.308;2023-05-23T01:44:27;98961.13;;;12.90;100.00
27840;BME280;15207;42.182;24.308;2023-05-23T01:46:53;98946.16;;;12.87;100.00
27840;BME280;15207;42.182;24.308;2023-05-23T01:49:20;98945.59;;;12.83;100.00
27840;BME280;15207;42.182;24.308;2023-05-23T01:51:47;98940.09;;;12.85;100.00
27840;BME280;15207;42.182;24.308;2023-05-23T01:54:14;98947.47;;;12.83;100.00
27840;BME280;15207;42.182;24.308;2023-05-23T01:56:44;98939.81;;;12.78;99.34
27840;BME280;15207;42.182;24.308;2023-05-23T01:59:10;98946.31;;;12.76;98.69
27840;BME280;15207;42.182;24.308;2023-05-23T02:01:36;98941.25;;;12.73;99.33
27840;BME280;15207;42.182;24.308;2023-05-23T02:04:03;98943.78;;;12.74;99.17
27840;BME280;15207;42.182;24.308;2023-05-23T02:06:29;98938.25;;;12.76;99.68
27840;BME280;15207;42.182;24.308;2023-05-23T02:08:56;98932.34;;;12.72;100.00
27840;BME280;15207;42.182;24.308;2023-05-23T02:11:21;98935.28;;;12.69;100.00
27840;BME280;15207;42.182;24.308;2023-05-23T02:13:47;98938.44;;;12.64;100.00
27840;BME280;15207;42.182;24.308;2023-05-23T02:16:13;98930.78;;;12.69;100.00
27840;BME280;15207;42.182;24.308;2023-05-23T02:18:38;98935.88;;;12.63;100.00
27840;BME280;15207;42.182;24.308;2023-05-23T02:21:05;98935.75;;;12.64;100.00
27840;BME280;15207;42.182;24.308;2023-05-23T02:23:31;98933.19;;;12.73;100.00
27840;BME280;15207;42.182;24.308;2023-05-23T02:25:56;98934.75;;;12.75;100.00
27840;BME280;15207;42.182;24.308;2023-05-23T02:28:22;98936.84;;;12.81;100.00
27840;BME280;15207;42.182;24.308;2023-05-23T02:30:48;98942.63;;;12.87;100.00
27840;BME280;15207;42.182;24.308;2023-05-23T02:33:15;98948.28;;;12.93;100.00
27840;BME280;15207;42.182;24.308;2023-05-23T02:35:41;98945.31;;;12.87;99.70
27840;BME280;15207;42.182;24.308;2023-05-23T02:38:06;98955.50;;;12.83;98.26
27840;BME280;15207;42.182;24.308;2023-05-23T02:40:32;98952.41;;;12.78;97.87
27840;BME280;15207;42.182;24.308;2023-05-23T02:42:58;98939.41;;;12.73;98.88
27840;BME280;15207;42.182;24.308;2023-05-23T02:45:23;98937.59;;;12.54;98.74
27840;BME280;15207;42.182;24.308;2023-05-23T02:47:49;98940.13;;;12.46;99.07
27840;BME280;15207;42.182;24.308;2023-05-23T02:50:15;98940.00;;;12.37;99.01
27840;BME280;15207;42.182;24.308;2023-05-23T02:52:41;98939.56;;;12.32;99.41
27840;BME280;15207;42.182;24.308;2023-05-23T02:55:07;98944.09;;;12.32;100.00
27840;BME280;15207;42.182;24.308;2023-05-23T02:57:33;98948.91;;;12.38;100.00
27840;BME280;15207;42.182;24.308;2023-05-23T02:59:59;98946.78;;;12.41;99.53
27840;BME280;15207;42.182;24.308;2023-05-23T03:02:24;98951.16;;;12.33;99.54
27840;BME280;15207;42.182;24.308;2023-05-23T03:04:51;98939.75;;;12.30;99.08
27840;BME280;15207;42.182;24.308;2023-05-23T03:07:16;98952.03;;;12.33;99.45
27840;BME280;15207;42.182;24.308;2023-05-23T03:09:42;98944.94;;;12.32;99.84
27840;BME280;15207;42.182;24.308;2023-05-23T03:12:07;98945.66;;;12.34;100.00
27840;BME280;15207;42.182;24.308;2023-05-23T03:14:33;98951.31;;;12.41;100.00
27840;BME280;15207;42.182;24.308;2023-05-23T03:16:58;98945.22;;;12.49;100.00
27840;BME280;15207;42.182;24.308;2023-05-23T03:19:24;98951.31;;;12.51;100.00
27840;BME280;15207;42.182;24.308;2023-05-23T03:21:51;98949.34;;;12.53;98.05
27840;BME280;15207;42.182;24.308;2023-05-23T03:24:17;98949.16;;;12.54;97.83
27840;BME280;15207;42.182;24.308;2023-05-23T03:26:42;98944.66;;;12.55;99.23
27840;BME280;15207;42.182;24.308;2023-05-23T03:29:08;98945.22;;;12.59;99.80
27840;BME280;15207;42.182;24.308;2023-05-23T03:31:36;98941.41;;;12.61;100.00
27840;BME280;15207;42.182;24.308;2023-05-23T03:34:02;98943.94;;;12.63;99.85
27840;BME280;15207;42.182;24.308;2023-05-23T03:36:30;98940.13;;;12.65;100.00
27840;BME280;15207;42.182;24.308;2023-05-23T03:38:58;98934.88;;;12.64;100.00
27840;BME280;15207;42.182;24.308;2023-05-23T03:41:24;98934.47;;;12.68;100.00
27840;BME280;15207;42.182;24.308;2023-05-23T03:43:50;98945.91;;;12.70;100.00
27840;BME280;15207;42.182;24.308;2023-05-23T03:46:16;98938.13;;;12.77;100.00
27840;BME280;15207;42.182;24.308;2023-05-23T03:48:42;98941.34;;;12.81;100.00
27840;BME280;15207;42.182;24.308;2023-05-23T03:51:08;98940.09;;;12.85;100.00
27840;BME280;15207;42.182;24.308;2023-05-23T03:53:33;98946.56;;;12.92;100.00
27840;BME280;15207;42.182;24.308;2023-05-23T03:55:59;98939.16;;;13.04;100.00
27840;BME280;15207;42.182;24.308;2023-05-23T03:58:25;98940.56;;;13.18;99.69
27840;BME280;15207;42.182;24.308;2023-05-23T04:00:51;98945.03;;;13.28;99.50
27840;BME280;15207;42.182;24.308;2023-05-23T04:03:17;98936.19;;;13.45;98.96
27840;BME280;15207;42.182;24.308;2023-05-23T04:05:42;98930.19;;;13.61;98.88
27840;BME280;15207;42.182;24.308;2023-05-23T04:08:08;98931.22;;;13.79;97.10
27840;BME280;15207;42.182;24.308;2023-05-23T04:10:34;98941.69;;;14.00;96.22
27840;BME280;15207;42.182;24.308;2023-05-23T04:13:00;98942.13;;;14.23;95.04
27840;BME280;15207;42.182;24.308;2023-05-23T04:15:26;98937.16;;;14.55;93.32
27840;BME280;15207;42.182;24.308;2023-05-23T04:17:53;98947.31;;;14.79;92.96
27840;BME280;15207;42.182;24.308;2023-05-23T04:20:18;98943.56;;;14.99;89.90
27840;BME280;15207;42.182;24.308;2023-05-23T04:22:44;98939.75;;;15.10;89.47
27840;BME280;15207;42.182;24.308;2023-05-23T04:25:10;98941.50;;;15.19;89.16
27840;BME280;15207;42.182;24.308;2023-05-23T04:27:35;98947.13;;;15.34;88.53
27840;BME280;15207;42.182;24.308;2023-05-23T04:30:05;98951.75;;;15.58;88.73
27840;BME280;15207;42.182;24.308;2023-05-23T04:32:32;98949.16;;;15.83;86.63
27840;BME280;15207;42.182;24.308;2023-05-23T04:34:58;98946.03;;;16.05;86.39
27840;BME280;15207;42.182;24.308;2023-05-23T04:37:26;98949.78;;;16.12;84.27
27840;BME280;15207;42.182;24.308;2023-05-23T04:39:52;98952.66;;;16.27;84.48
27840;BME280;15207;42.182;24.308;2023-05-23T04:42:18;98950.31;;;16.49;83.29
27840;BME280;15207;42.182;24.308;2023-05-23T04:44:49;98948.31;;;16.59;82.85
27840;BME280;15207;42.182;24.308;2023-05-23T04:47:16;98944.56;;;16.85;83.15
27840;BME280;15207;42.182;24.308;2023-05-23T04:49:41;98942.50;;;16.96;82.33
27840;BME280;15207;42.182;24.308;2023-05-23T04:52:08;98943.53;;;17.11;81.98
27840;BME280;15207;42.182;24.308;2023-05-23T04:54:34;98946.00;;;17.38;81.73
27840;BME280;15207;42.182;24.308;2023-05-23T04:57:00;98946.53;;;17.73;79.75
27840;BME280;15207;42.182;24.308;2023-05-23T04:59:26;98944.16;;;18.10;78.20
27840;BME280;15207;42.182;24.308;2023-05-23T05:01:51;98949.56;;;18.33;77.88
27840;BME280;15207;42.182;24.308;2023-05-23T05:04:17;98939.44;;;18.50;77.10
27840;BME280;15207;42.182;24.308;2023-05-23T05:06:42;98950.59;;;18.56;75.93
27840;BME280;15207;42.182;24.308;2023-05-23T05:09:08;98946.34;;;18.76;76.82
27840;BME280;15207;42.182;24.308;2023-05-23T05:11:33;98958.16;;;18.99;74.11
27840;BME280;15207;42.182;24.308;2023-05-23T05:13:59;98955.69;;;19.27;74.22
27840;BME280;15207;42.182;24.308;2023-05-23T05:16:25;98954.56;;;19.52;74.05
27840;BME280;15207;42.182;24.308;2023-05-23T05:18:51;98952.78;;;19.59;71.63
27840;BME280;15207;42.182;24.308;2023-05-23T05:21:17;98961.13;;;19.58;71.76
27840;BME280;15207;42.182;24.308;2023-05-23T05:23:42;98944.50;;;19.67;70.41
27840;BME280;15207;42.182;24.308;2023-05-23T05:26:08;98951.63;;;19.83;69.79
27840;BME280;15207;42.182;24.308;2023-05-23T05:28:34;98950.84;;;19.90;69.57
27840;BME280;15207;42.182;24.308;2023-05-23T05:30:59;98944.78;;;19.88;69.71
27840;BME280;15207;42.182;24.308;2023-05-23T05:33:29;98945.53;;;19.81;69.67
27840;BME280;15207;42.182;24.308;2023-05-23T05:36:01;98949.63;;;19.92;71.00
27840;BME280;15207;42.182;24.308;2023-05-23T05:38:26;98951.88;;;20.04;69.54
27840;BME280;15207;42.182;24.308;2023-05-23T05:40:52;98958.56;;;20.23;68.25
27840;BME280;15207;42.182;24.308;2023-05-23T05:43:17;98956.22;;;20.20;66.19
27840;BME280;15207;42.182;24.308;2023-05-23T05:45:43;98952.69;;;20.41;67.69
27840;BME280;15207;42.182;24.308;2023-05-23T05:48:09;98955.59;;;20.61;69.55
27840;BME280;15207;42.182;24.308;2023-05-23T05:50:36;98964.00;;;20.67;67.01
27840;BME280;15207;42.182;24.308;2023-05-23T05:53:01;98961.84;;;20.84;67.72
27840;BME280;15207;42.182;24.308;2023-05-23T05:55:28;98957.56;;;20.96;64.83
27840;BME280;15207;42.182;24.308;2023-05-23T05:57:54;98967.66;;;21.03;66.52
27840;BME280;15207;42.182;24.308;2023-05-23T06:00:20;98956.00;;;21.09;65.86
27840;BME280;15207;42.182;24.308;2023-05-23T06:02:46;98953.53;;;21.21;65.43
27840;BME280;15207;42.182;24.308;2023-05-23T06:05:13;98955.97;;;21.37;64.30
27840;BME280;15207;42.182;24.308;2023-05-23T06:07:43;98961.22;;;21.46;64.88
27840;BME280;15207;42.182;24.308;2023-05-23T06:10:10;98953.13;;;21.59;63.31
27840;BME280;15207;42.182;24.308;2023-05-23T06:12:38;98958.72;;;21.79;63.40
27840;BME280;15207;42.182;24.308;2023-05-23T06:15:05;98947.06;;;21.99;59.39
27840;BME280;15207;42.182;24.308;2023-05-23T06:17:31;98941.00;;;22.17;59.74
27840;BME280;15207;42.182;24.308;2023-05-23T06:19:59;98936.78;;;22.08;57.47
27840;BME280;15207;42.182;24.308;2023-05-23T06:22:24;98937.03;;;22.20;58.48
27840;BME280;15207;42.182;24.308;2023-05-23T06:24:50;98938.69;;;22.14;56.20
27840;BME280;15207;42.182;24.308;2023-05-23T06:27:16;98942.44;;;22.06;57.36
27840;BME280;15207;42.182;24.308;2023-05-23T06:29:41;98930.09;;;22.17;55.54
27840;BME280;15207;42.182;24.308;2023-05-23T06:32:07;98926.56;;;22.30;57.58
27840;BME280;15207;42.182;24.308;2023-05-23T06:34:33;98924.06;;;22.49;57.35
27840;BME280;15207;42.182;24.308;2023-05-23T06:36:59;98925.75;;;22.64;56.69
27840;BME280;15207;42.182;24.308;2023-05-23T06:39:25;98929.34;;;22.84;54.78
27840;BME280;15207;42.182;24.308;2023-05-23T06:41:52;98928.50;;;22.97;54.10
27840;BME280;15207;42.182;24.308;2023-05-23T06:44:18;98918.19;;;22.93;53.03
27840;BME280;15207;42.182;24.308;2023-05-23T06:46:46;98923.44;;;22.88;54.04
27840;BME280;15207;42.182;24.308;2023-05-23T06:49:13;98931.63;;;23.01;55.26
27840;BME280;15207;42.182;24.308;2023-05-23T06:51:39;98922.38;;;23.16;53.38
27840;BME280;15207;42.182;24.308;2023-05-23T06:54:05;98921.50;;;23.29;53.10
27840;BME280;15207;42.182;24.308;2023-05-23T06:56:31;98924.22;;;23.42;54.35
27840;BME280;15207;42.182;24.308;2023-05-23T06:58:57;98914.09;;;23.56;52.20
27840;BME280;15207;42.182;24.308;2023-05-23T07:01:23;98927.06;;;23.68;52.62
27840;BME280;15207;42.182;24.308;2023-05-23T07:03:48;98922.25;;;23.63;54.20
27840;BME280;15207;42.182;24.308;2023-05-23T07:06:14;98929.94;;;23.80;53.58
27840;BME280;15207;42.182;24.308;2023-05-23T07:08:40;98922.34;;;23.82;52.75
27840;BME280;15207;42.182;24.308;2023-05-23T07:11:06;98925.75;;;23.77;53.21
27840;BME280;15207;42.182;24.308;2023-05-23T07:13:31;98920.72;;;23.74;52.73
27840;BME280;15207;42.182;24.308;2023-05-23T07:15:57;98918.09;;;23.54;54.92
27840;BME280;15207;42.182;24.308;2023-05-23T07:18:23;98921.03;;;23.45;52.65
27840;BME280;15207;42.182;24.308;2023-05-23T07:20:49;98909.19;;;23.65;53.25
27840;BME280;15207;42.182;24.308;2023-05-23T07:23:16;98905.50;;;23.91;51.20
27840;BME280;15207;42.182;24.308;2023-05-23T07:25:42;98906.25;;;24.12;52.97
27840;BME280;15207;42.182;24.308;2023-05-23T07:28:08;98904.06;;;24.21;51.46
27840;BME280;15207;42.182;24.308;2023-05-23T07:30:34;98900.47;;;24.27;49.97
27840;BME280;15207;42.182;24.308;2023-05-23T07:33:01;98890.56;;;24.26;51.06
27840;BME280;15207;42.182;24.308;2023-05-23T07:35:27;98893.00;;;24.41;49.57
27840;BME280;15207;42.182;24.308;2023-05-23T07:37:53;98896.81;;;24.40;49.38
27840;BME280;15207;42.182;24.308;2023-05-23T07:40:20;98893.59;;;24.43;47.83
27840;BME280;15207;42.182;24.308;2023-05-23T07:42:46;98897.03;;;24.39;46.77
27840;BME280;15207;42.182;24.308;2023-05-23T07:45:13;98891.94;;;24.42;45.81
27840;BME280;15207;42.182;24.308;2023-05-23T07:47:39;98890.09;;;24.62;45.13
27840;BME280;15207;42.182;24.308;2023-05-23T07:50:06;98894.91;;;24.66;43.64
27840;BME280;15207;42.182;24.308;2023-05-23T07:52:32;98876.66;;;24.79;44.85
27840;BME280;15207;42.182;24.308;2023-05-23T07:54:58;98883.59;;;24.81;42.10
27840;BME280;15207;42.182;24.308;2023-05-23T07:57:24;98883.41;;;24.83;43.45
27840;BME280;15207;42.182;24.308;2023-05-23T07:59:51;98887.41;;;24.80;42.90
27840;BME280;15207;42.182;24.308;2023-05-23T08:02:17;98886.47;;;24.68;44.39
27840;BME280;15207;42.182;24.308;2023-05-23T08:04:43;98888.63;;;24.59;46.62
27840;BME280;15207;42.182;24.308;2023-05-23T08:07:10;98885.91;;;24.59;42.69
27840;BME280;15207;42.182;24.308;2023-05-23T08:09:36;98888.59;;;24.66;42.94
27840;BME280;15207;42.182;24.308;2023-05-23T08:12:04;98879.16;;;24.62;41.77
27840;BME280;15207;42.182;24.308;2023-05-23T08:14:31;98882.97;;;24.86;43.01
27840;BME280;15207;42.182;24.308;2023-05-23T08:17:00;98879.69;;;24.96;41.66
27840;BME280;15207;42.182;24.308;2023-05-23T08:19:32;98885.34;;;25.01;42.67
27840;BME280;15207;42.182;24.308;2023-05-23T08:22:03;98872.38;;;24.64;42.32
27840;BME280;15207;42.182;24.308;2023-05-23T08:24:33;98884.63;;;24.87;43.04
27840;BME280;15207;42.182;24.308;2023-05-23T08:27:00;98873.78;;;25.18;42.17
27840;BME280;15207;42.182;24.308;2023-05-23T08:29:26;98873.31;;;24.83;41.44
27840;BME280;15207;42.182;24.308;2023-05-23T08:31:53;98871.34;;;24.65;40.40
27840;BME280;15207;42.182;24.308;2023-05-23T08:34:21;98871.03;;;24.23;40.92
27840;BME280;15207;42.182;24.308;2023-05-23T08:36:47;98862.50;;;24.12;42.07
27840;BME280;15207;42.182;24.308;2023-05-23T08:39:13;98857.94;;;23.99;41.82
27840;BME280;15207;42.182;24.308;2023-05-23T08:41:39;98859.22;;;23.97;42.28
27840;BME280;15207;42.182;24.308;2023-05-23T08:44:05;98855.66;;;23.89;43.29
27840;BME280;15207;42.182;24.308;2023-05-23T08:46:33;98859.22;;;23.97;44.68
27840;BME280;15207;42.182;24.308;2023-05-23T08:49:05;98856.88;;;24.00;45.22
27840;BME280;15207;42.182;24.308;2023-05-23T08:51:36;98870.34;;;23.95;45.27
27840;BME280;15207;42.182;24.308;2023-05-23T08:54:04;98864.75;;;23.83;48.14
27840;BME280;15207;42.182;24.308;2023-05-23T08:56:35;98857.47;;;23.70;48.75
27840;BME280;15207;42.182;24.308;2023-05-23T08:59:10;98861.09;;;23.57;48.98
27840;BME280;15207;42.182;24.308;2023-05-23T09:01:43;98863.78;;;23.71;46.41
27840;BME280;15207;42.182;24.308;2023-05-23T09:04:13;98857.75;;;23.94;43.37
27840;BME280;15207;42.182;24.308;2023-05-23T09:06:43;98858.50;;;24.08;42.76
27840;BME280;15207;42.182;24.308;2023-05-23T09:09:10;98860.44;;;24.33;43.17
27840;BME280;15207;42.182;24.308;2023-05-23T09:11:41;98852.63;;;24.37;42.10
27840;BME280;15207;42.182;24.308;2023-05-23T09:14:11;98859.78;;;24.63;41.83
27840;BME280;15207;42.182;24.308;2023-05-23T09:16:41;98856.38;;;24.68;40.91
27840;BME280;15207;42.182;24.308;2023-05-23T09:19:13;98848.66;;;24.83;42.70
27840;BME280;15207;42.182;24.308;2023-05-23T09:21:46;98846.09;;;24.89;41.24
27840;BME280;15207;42.182;24.308;2023-05-23T09:24:32;98853.69;;;24.61;41.36
27840;BME280;15207;42.182;24.308;2023-05-23T09:27:07;98855.94;;;24.46;43.31
27840;BME280;15207;42.182;24.308;2023-05-23T09:29:37;98850.22;;;24.22;42.78
27840;BME280;15207;42.182;24.308;2023-05-23T09:32:15;98847.66;;;24.27;41.65
27840;BME280;15207;42.182;24.308;2023-05-23T09:35:00;98846.16;;;24.31;43.46
27840;BME280;15207;42.182;24.308;2023-05-23T09:37:42;98846.81;;;24.26;42.31
27840;BME280;15207;42.182;24.308;2023-05-23T09:40:16;98845.50;;;24.10;43.93
27840;BME280;15207;42.182;24.308;2023-05-23T09:42:46;98853.56;;;24.24;44.02
27840;BME280;15207;42.182;24.308;2023-05-23T09:45:17;98848.66;;;24.00;43.01
27840;BME280;15207;42.182;24.308;2023-05-23T09:47:55;98845.88;;;24.14;43.64
27840;BME280;15207;42.182;24.308;2023-05-23T09:50:34;98844.94;;;24.27;42.55
27840;BME280;15207;42.182;24.308;2023-05-23T09:53:02;98843.03;;;24.27;43.19
27840;BME280;15207;42.182;24.308;2023-05-23T09:55:31;98847.72;;;24.20;43.88
27840;BME280;15207;42.182;24.308;2023-05-23T09:58:01;98850.09;;;24.10;47.40
27840;BME280;15207;42.182;24.308;2023-05-23T10:00:32;98853.03;;;24.08;54.13
27840;BME280;15207;42.182;24.308;2023-05-23T10:03:10;98860.06;;;23.97;49.82
27840;BME280;15207;42.182;24.308;2023-05-23T10:05:45;98855.47;;;23.84;55.08
27840;BME280;15207;42.182;24.308;2023-05-23T10:08:41;98852.69;;;23.59;69.08
27840;BME280;15207;42.182;24.308;2023-05-23T10:13:48;98865.72;;;22.77;75.57
27840;BME280;15207;42.182;24.308;2023-05-23T10:16:43;98873.28;;;22.35;84.99
27840;BME280;15207;42.182;24.308;2023-05-23T10:19:34;98864.44;;;22.05;83.33
27840;BME280;15207;42.182;24.308;2023-05-23T10:22:07;98863.13;;;21.74;85.22
27840;BME280;15207;42.182;24.308;2023-05-23T10:24:34;98865.59;;;21.20;81.98
27840;BME280;15207;42.182;24.308;2023-05-23T10:27:01;98871.13;;;20.98;90.25
27840;BME280;15207;42.182;24.308;2023-05-23T10:29:29;98869.34;;;20.84;89.86
27840;BME280;15207;42.182;24.308;2023-05-23T10:31:59;98866.81;;;20.82;93.49
27840;BME280;15207;42.182;24.308;2023-05-23T10:34:41;98857.19;;;20.80;95.48
27840;BME280;15207;42.182;24.308;2023-05-23T10:37:21;98859.97;;;20.86;96.66
27840;BME280;15207;42.182;24.308;2023-05-23T10:40:10;98853.97;;;20.98;86.20
27840;BME280;15207;42.182;24.308;2023-05-23T10:43:15;98858.88;;;21.16;91.69
27840;BME280;15207;42.182;24.308;2023-05-23T10:45:43;98859.31;;;21.20;93.98
27840;BME280;15207;42.182;24.308;2023-05-23T10:48:20;98852.47;;;21.31;95.13
27840;BME280;15207;42.182;24.308;2023-05-23T10:51:03;98851.84;;;21.35;88.08
27840;BME280;15207;42.182;24.308;2023-05-23T10:53:31;98851.66;;;21.44;82.54
27840;BME280;15207;42.182;24.308;2023-05-23T10:55:57;98837.66;;;21.47;84.04
27840;BME280;15207;42.182;24.308;2023-05-23T10:58:22;98854.69;;;21.69;86.10
27840;BME280;15207;42.182;24.308;2023-05-23T11:01:08;98846.38;;;21.91;80.64
27840;BME280;15207;42.182;24.308;2023-05-23T11:06:28;98851.88;;;22.52;78.65
27840;BME280;15207;42.182;24.308;2023-05-23T11:09:02;98846.00;;;22.82;76.24
27840;BME280;15207;42.182;24.308;2023-05-23T11:19:38;98852.84;;;23.71;59.91
27840;BME280;15207;42.182;24.308;2023-05-23T11:22:08;98853.50;;;23.66;60.04
27840;BME280;15207;42.182;24.308;2023-05-23T11:27:29;98850.22;;;23.50;53.45
27840;BME280;15207;42.182;24.308;2023-05-23T11:32:27;98845.44;;;23.78;56.71
27840;BME280;15207;42.182;24.308;2023-05-23T11:34:54;98849.94;;;23.98;57.50
27840;BME280;15207;42.182;24.308;2023-05-23T11:37:20;98849.44;;;24.14;61.40
27840;BME280;15207;42.182;24.308;2023-05-23T11:39:48;98844.13;;;24.20;55.53
27840;BME280;15207;42.182;24.308;2023-05-23T11:42:14;98843.25;;;24.26;54.00
27840;BME280;15207;42.182;24.308;2023-05-23T11:44:39;98841.06;;;24.35;55.38
27840;BME280;15207;42.182;24.308;2023-05-23T11:47:05;98846.19;;;24.50;55.70
27840;BME280;15207;42.182;24.308;2023-05-23T11:49:34;98845.44;;;24.68;51.61
27840;BME280;15207;42.182;24.308;2023-05-23T11:52:03;98846.97;;;24.82;49.77
27840;BME280;15207;42.182;24.308;2023-05-23T11:54:31;98841.13;;;24.98;49.48
27840;BME280;15207;42.182;24.308;2023-05-23T11:56:57;98833.31;;;25.20;48.77
27840;BME280;15207;42.182;24.308;2023-05-23T11:59:24;98826.47;;;25.29;49.15
27840;BME280;15207;42.182;24.308;2023-05-23T12:01:51;98836.63;;;25.41;46.56
27840;BME280;15207;42.182;24.308;2023-05-23T12:04:16;98829.03;;;25.43;43.57
27840;BME280;15207;42.182;24.308;2023-05-23T12:06:46;98822.41;;;25.51;45.20
27840;BME280;15207;42.182;24.308;2023-05-23T12:09:13;98827.19;;;25.55;44.54
27840;BME280;15207;42.182;24.308;2023-05-23T12:11:40;98823.88;;;25.65;41.66
27840;BME280;15207;42.182;24.308;2023-05-23T12:14:07;98814.38;;;25.68;41.75
27840;BME280;15207;42.182;24.308;2023-05-23T12:16:35;98814.97;;;25.70;43.29
27840;BME280;15207;42.182;24.308;2023-05-23T12:19:03;98805.19;;;25.62;42.77
27840;BME280;15207;42.182;24.308;2023-05-23T12:21:46;98803.81;;;25.53;42.19
27840;BME280;15207;42.182;24.308;2023-05-23T12:24:18;98807.34;;;25.41;41.63
27840;BME280;15207;42.182;24.308;2023-05-23T12:26:45;98795.81;;;25.20;40.38
27840;BME280;15207;42.182;24.308;2023-05-23T12:29:12;98791.28;;;25.26;43.36
27840;BME280;15207;42.182;24.308;2023-05-23T12:31:38;98785.88;;;25.38;42.36
27840;BME280;15207;42.182;24.308;2023-05-23T12:34:04;98789.75;;;25.49;43.78
27840;BME280;15207;42.182;24.308;2023-05-23T12:36:31;98789.75;;;25.49;43.04
27840;BME280;15207;42.182;24.308;2023-05-23T12:39:03;98783.41;;;25.48;42.25
27840;BME280;15207;42.182;24.308;2023-05-23T12:41:29;98786.38;;;25.47;41.36
27840;BME280;15207;42.182;24.308;2023-05-23T12:43:56;98784.03;;;25.51;41.60
27840;BME280;15207;42.182;24.308;2023-05-23T12:46:23;98776.34;;;25.59;42.82
27840;BME280;15207;42.182;24.308;2023-05-23T12:48:50;98768.72;;;25.61;41.52
27840;BME280;15207;42.182;24.308;2023-05-23T12:51:18;98778.16;;;25.66;42.75
27840;BME280;15207;42.182;24.308;2023-05-23T12:53:53;98777.56;;;25.45;39.62
27840;BME280;15207;42.182;24.308;2023-05-23T12:56:19;98774.50;;;25.22;40.07
27840;BME280;15207;42.182;24.308;2023-05-23T12:58:47;98765.00;;;25.06;40.53
27840;BME280;15207;42.182;24.308;2023-05-23T13:01:13;98767.97;;;25.05;41.19
27840;BME280;15207;42.182;24.308;2023-05-23T13:03:39;98754.75;;;25.02;40.87
27840;BME280;15207;42.182;24.308;2023-05-23T13:06:05;98763.56;;;25.04;42.38
27840;BME280;15207;42.182;24.308;2023-05-23T13:08:31;98760.06;;;24.96;41.34
27840;BME280;15207;42.182;24.308;2023-05-23T13:10:57;98759.22;;;24.96;41.64
27840;BME280;15207;42.182;24.308;2023-05-23T13:13:25;98744.31;;;24.92;40.82
27840;BME280;15207;42.182;24.308;2023-05-23T13:15:51;98750.34;;;25.01;40.94
27840;BME280;15207;42.182;24.308;2023-05-23T13:18:16;98754.53;;;25.03;40.37
27840;BME280;15207;42.182;24.308;2023-05-23T13:20:42;98754.03;;;25.06;40.05